sensor_id;sensor_type;location;lat;lon;timestamp;P1;durP1;ratioP1;P2;durP2;ratioP2
75772;SDS011;64381;0.000;0.000;2023-03-01T00:00:26;9.63;;;5.87;;
75772;SDS011;64381;0.000;0.000;2023-03-01T00:02:52;10.13;;;6.20;;
75772;SDS011;64381;0.000;0.000;2023-03-01T00:05:17;10.13;;;5.87;;
75772;SDS011;64381;0.000;0.000;2023-03-01T00:07:42;10.87;;;6.10;;
75772;SDS011;64381;0.000;0.000;2023-03-01T00:10:07;10.93;;;6.23;;
75772;SDS011;64381;0.000;0.000;2023-03-01T00:12:33;9.80;;;5.72;;
75772;SDS011;64381;0.000;0.000;2023-03-01T00:14:59;10.17;;;5.97;;
75772;SDS011;64381;0.000;0.000;2023-03-01T00:17:24;10.50;;;6.30;;
75772;SDS011;64381;0.000;0.000;2023-03-01T00:19:49;10.73;;;6.10;;
75772;SDS011;64381;0.000;0.000;2023-03-01T00:22:14;12.07;;;6.47;;
75772;SDS011;64381;0.000;0.000;2023-03-01T00:24:39;10.80;;;5.90;;
75772;SDS011;64381;0.000;0.000;2023-03-01T00:27:05;10.30;;;6.13;;
75772;SDS011;64381;0.000;0.000;2023-03-01T00:29:30;10.87;;;6.07;;
75772;SDS011;64381;0.000;0.000;2023-03-01T00:31:55;10.90;;;6.13;;
75772;SDS011;64381;0.000;0.000;2023-03-01T00:34:20;10.63;;;5.87;;
75772;SDS011;64381;0.000;0.000;2023-03-01T00:36:45;9.50;;;5.80;;
75772;SDS011;64381;0.000;0.000;2023-03-01T00:39:12;10.97;;;6.03;;
75772;SDS011;64381;0.000;0.000;2023-03-01T00:41:38;10.48;;;5.97;;
75772;SDS011;64381;0.000;0.000;2023-03-01T00:44:04;10.33;;;6.20;;
75772;SDS011;64381;0.000;0.000;2023-03-01T00:46:29;9.40;;;5.57;;
75772;SDS011;64381;0.000;0.000;2023-03-01T00:48:54;9.97;;;6.17;;
75772;SDS011;64381;0.000;0.000;2023-03-01T00:51:20;11.00;;;5.90;;
75772;SDS011;64381;0.000;0.000;2023-03-01T00:53:51;11.18;;;6.15;;
75772;SDS011;64381;0.000;0.000;2023-03-01T00:56:17;10.38;;;6.20;;
75772;SDS011;64381;0.000;0.000;2023-03-01T00:58:43;13.45;;;5.97;;
75772;SDS011;64381;0.000;0.000;2023-03-01T01:01:09;9.43;;;6.23;;
75772;SDS011;64381;0.000;0.000;2023-03-01T01:03:36;10.55;;;5.75;;
75772;SDS011;64381;0.000;0.000;2023-03-01T01:06:01;11.20;;;6.20;;
75772;SDS011;64381;0.000;0.000;2023-03-01T01:08:27;11.07;;;6.37;;
75772;SDS011;64381;0.000;0.000;2023-03-01T01:10:52;9.73;;;5.70;;
75772;SDS011;64381;0.000;0.000;2023-03-01T01:13:17;9.40;;;5.70;;
75772;SDS011;64381;0.000;0.000;2023-03-01T01:15:43;10.60;;;5.80;;
75772;SDS011;64381;0.000;0.000;2023-03-01T01:18:08;10.97;;;5.43;;
75772;SDS011;64381;0.000;0.000;2023-03-01T01:20:34;10.67;;;5.63;;
75772;SDS011;64381;0.000;0.000;2023-03-01T01:23:00;10.00;;;5.57;;
75772;SDS011;64381;0.000;0.000;2023-03-01T01:25:25;9.37;;;5.63;;
75772;SDS011;64381;0.000;0.000;2023-03-01T01:27:51;9.93;;;6.20;;
75772;SDS011;64381;0.000;0.000;2023-03-01T01:30:16;9.83;;;5.87;;
75772;SDS011;64381;0.000;0.000;2023-03-01T01:32:42;9.05;;;5.78;;
75772;SDS011;64381;0.000;0.000;2023-03-01T01:35:07;10.20;;;5.63;;
75772;SDS011;64381;0.000;0.000;2023-03-01T01:37:32;10.70;;;5.70;;
75772;SDS011;64381;0.000;0.000;2023-03-01T01:39:58;10.50;;;6.23;;
75772;SDS011;64381;0.000;0.000;2023-03-01T01:42:24;10.27;;;5.60;;
75772;SDS011;64381;0.000;0.000;2023-03-01T01:45:15;9.88;;;5.45;;
75772;SDS011;64381;0.000;0.000;2023-03-01T01:47:50;10.73;;;5.60;;
75772;SDS011;64381;0.000;0.000;2023-03-01T01:50:16;10.55;;;5.70;;
75772;SDS011;64381;0.000;0.000;2023-03-01T01:52:43;10.18;;;5.60;;
75772;SDS011;64381;0.000;0.000;2023-03-01T01:55:14;8.95;;;5.55;;
75772;SDS011;64381;0.000;0.000;2023-03-01T01:57:45;10.02;;;5.85;;
75772;SDS011;64381;0.000;0.000;2023-03-01T02:00:19;9.07;;;5.00;;
75772;SDS011;64381;0.000;0.000;2023-03-01T02:03:11;9.18;;;5.43;;
75772;SDS011;64381;0.000;0.000;2023-03-01T02:08:14;9.75;;;5.55;;
75772;SDS011;64381;0.000;0.000;2023-03-01T02:10:43;9.15;;;5.50;;
75772;SDS011;64381;0.000;0.000;2023-03-01T02:13:09;8.63;;;5.33;;
75772;SDS011;64381;0.000;0.000;2023-03-01T02:15:36;9.30;;;5.38;;
75772;SDS011;64381;0.000;0.000;2023-03-01T02:18:03;9.25;;;5.38;;
75772;SDS011;64381;0.000;0.000;2023-03-01T02:20:33;10.07;;;5.53;;
75772;SDS011;64381;0.000;0.000;2023-03-01T02:23:04;11.07;;;6.05;;
75772;SDS011;64381;0.000;0.000;2023-03-01T02:30:38;9.05;;;5.40;;
75772;SDS011;64381;0.000;0.000;2023-03-01T02:33:03;10.27;;;5.70;;
75772;SDS011;64381;0.000;0.000;2023-03-01T02:35:33;9.63;;;5.57;;
75772;SDS011;64381;0.000;0.000;2023-03-01T02:38:01;9.13;;;5.10;;
75772;SDS011;64381;0.000;0.000;2023-03-01T02:40:31;11.27;;;5.85;;
75772;SDS011;64381;0.000;0.000;2023-03-01T02:42:59;9.10;;;5.20;;
75772;SDS011;64381;0.000;0.000;2023-03-01T02:45:24;9.50;;;5.45;;
75772;SDS011;64381;0.000;0.000;2023-03-01T02:47:54;9.00;;;5.07;;
75772;SDS011;64381;0.000;0.000;2023-03-01T02:55:28;10.30;;;5.25;;
75772;SDS011;64381;0.000;0.000;2023-03-01T02:57:54;9.53;;;5.40;;
75772;SDS011;64381;0.000;0.000;2023-03-01T03:00:22;8.27;;;5.15;;
75772;SDS011;64381;0.000;0.000;2023-03-01T03:02:54;8.75;;;5.18;;
75772;SDS011;64381;0.000;0.000;2023-03-01T03:05:21;9.05;;;5.13;;
75772;SDS011;64381;0.000;0.000;2023-03-01T03:07:52;8.82;;;5.15;;
75772;SDS011;64381;0.000;0.000;2023-03-01T03:10:25;9.38;;;5.28;;
75772;SDS011;64381;0.000;0.000;2023-03-01T03:12:53;10.20;;;5.57;;
75772;SDS011;64381;0.000;0.000;2023-03-01T03:15:21;8.75;;;5.07;;
75772;SDS011;64381;0.000;0.000;2023-03-01T03:17:47;9.18;;;5.20;;
75772;SDS011;64381;0.000;0.000;2023-03-01T03:20:14;9.33;;;5.27;;
75772;SDS011;64381;0.000;0.000;2023-03-01T03:22:41;9.60;;;4.88;;
75772;SDS011;64381;0.000;0.000;2023-03-01T03:25:07;8.37;;;5.27;;
75772;SDS011;64381;0.000;0.000;2023-03-01T03:27:33;9.48;;;5.70;;
75772;SDS011;64381;0.000;0.000;2023-03-01T03:29:58;10.07;;;5.20;;
75772;SDS011;64381;0.000;0.000;2023-03-01T03:32:23;8.43;;;5.03;;
75772;SDS011;64381;0.000;0.000;2023-03-01T03:34:48;7.90;;;4.97;;
75772;SDS011;64381;0.000;0.000;2023-03-01T03:37:14;8.67;;;4.90;;
75772;SDS011;64381;0.000;0.000;2023-03-01T03:39:39;7.93;;;4.83;;
75772;SDS011;64381;0.000;0.000;2023-03-01T03:42:04;7.93;;;5.10;;
75772;SDS011;64381;0.000;0.000;2023-03-01T03:44:29;8.43;;;5.10;;
75772;SDS011;64381;0.000;0.000;2023-03-01T03:46:54;9.23;;;5.07;;
75772;SDS011;64381;0.000;0.000;2023-03-01T03:49:20;8.20;;;4.77;;
75772;SDS011;64381;0.000;0.000;2023-03-01T03:51:45;8.70;;;5.43;;
75772;SDS011;64381;0.000;0.000;2023-03-01T03:54:10;8.23;;;5.10;;
75772;SDS011;64381;0.000;0.000;2023-03-01T03:56:36;8.67;;;5.23;;
75772;SDS011;64381;0.000;0.000;2023-03-01T03:59:01;8.80;;;5.13;;
75772;SDS011;64381;0.000;0.000;2023-03-01T04:01:26;10.10;;;5.40;;
75772;SDS011;64381;0.000;0.000;2023-03-01T04:03:51;9.50;;;5.40;;
75772;SDS011;64381;0.000;0.000;2023-03-01T04:06:16;9.27;;;5.13;;
75772;SDS011;64381;0.000;0.000;2023-03-01T04:08:42;9.30;;;5.13;;
75772;SDS011;64381;0.000;0.000;2023-03-01T04:11:07;8.90;;;4.93;;
75772;SDS011;64381;0.000;0.000;2023-03-01T04:13:32;8.63;;;5.67;;
75772;SDS011;64381;0.000;0.000;2023-03-01T04:15:57;8.30;;;4.87;;
75772;SDS011;64381;0.000;0.000;2023-03-01T04:18:23;8.70;;;4.87;;
75772;SDS011;64381;0.000;0.000;2023-03-01T04:20:48;9.48;;;5.47;;
75772;SDS011;64381;0.000;0.000;2023-03-01T04:23:17;7.87;;;4.80;;
75772;SDS011;64381;0.000;0.000;2023-03-01T04:25:51;7.43;;;4.65;;
75772;SDS011;64381;0.000;0.000;2023-03-01T04:28:22;7.55;;;4.43;;
75772;SDS011;64381;0.000;0.000;2023-03-01T04:30:54;8.75;;;4.68;;
75772;SDS011;64381;0.000;0.000;2023-03-01T04:33:21;8.93;;;5.17;;
75772;SDS011;64381;0.000;0.000;2023-03-01T04:35:47;9.60;;;5.05;;
75772;SDS011;64381;0.000;0.000;2023-03-01T04:38:13;8.40;;;4.88;;
75772;SDS011;64381;0.000;0.000;2023-03-01T04:40:39;9.77;;;5.10;;
75772;SDS011;64381;0.000;0.000;2023-03-01T04:43:04;7.47;;;4.80;;
75772;SDS011;64381;0.000;0.000;2023-03-01T04:45:31;9.00;;;4.77;;
75772;SDS011;64381;0.000;0.000;2023-03-01T04:47:57;8.32;;;4.82;;
75772;SDS011;64381;0.000;0.000;2023-03-01T04:50:22;7.77;;;4.27;;
75772;SDS011;64381;0.000;0.000;2023-03-01T04:52:47;9.77;;;5.30;;
75772;SDS011;64381;0.000;0.000;2023-03-01T04:55:13;8.03;;;4.90;;
75772;SDS011;64381;0.000;0.000;2023-03-01T04:57:38;7.70;;;4.53;;
75772;SDS011;64381;0.000;0.000;2023-03-01T05:00:05;8.27;;;5.07;;
75772;SDS011;64381;0.000;0.000;2023-03-01T05:02:34;7.80;;;4.90;;
75772;SDS011;64381;0.000;0.000;2023-03-01T05:04:59;8.23;;;5.30;;
75772;SDS011;64381;0.000;0.000;2023-03-01T05:07:25;8.13;;;5.00;;
75772;SDS011;64381;0.000;0.000;2023-03-01T05:09:50;7.47;;;4.67;;
75772;SDS011;64381;0.000;0.000;2023-03-01T05:12:15;7.70;;;4.80;;
75772;SDS011;64381;0.000;0.000;2023-03-01T05:14:41;8.13;;;5.20;;
75772;SDS011;64381;0.000;0.000;2023-03-01T05:17:06;7.70;;;4.57;;
75772;SDS011;64381;0.000;0.000;2023-03-01T05:19:32;8.67;;;4.70;;
75772;SDS011;64381;0.000;0.000;2023-03-01T05:21:57;7.83;;;4.60;;
75772;SDS011;64381;0.000;0.000;2023-03-01T05:24:22;7.93;;;4.93;;
75772;SDS011;64381;0.000;0.000;2023-03-01T05:26:48;7.77;;;4.73;;
75772;SDS011;64381;0.000;0.000;2023-03-01T05:29:13;8.20;;;4.90;;
75772;SDS011;64381;0.000;0.000;2023-03-01T05:31:38;8.70;;;5.27;;
75772;SDS011;64381;0.000;0.000;2023-03-01T05:34:03;7.83;;;4.73;;
75772;SDS011;64381;0.000;0.000;2023-03-01T05:36:28;8.50;;;5.03;;
75772;SDS011;64381;0.000;0.000;2023-03-01T05:38:54;8.83;;;4.87;;
75772;SDS011;64381;0.000;0.000;2023-03-01T05:41:19;9.00;;;4.90;;
75772;SDS011;64381;0.000;0.000;2023-03-01T05:43:44;8.20;;;4.57;;
75772;SDS011;64381;0.000;0.000;2023-03-01T05:46:09;7.70;;;4.87;;
75772;SDS011;64381;0.000;0.000;2023-03-01T05:48:35;7.57;;;4.80;;
75772;SDS011;64381;0.000;0.000;2023-03-01T05:51:00;8.57;;;4.90;;
75772;SDS011;64381;0.000;0.000;2023-03-01T05:53:25;8.17;;;4.80;;
75772;SDS011;64381;0.000;0.000;2023-03-01T05:55:50;8.13;;;4.83;;
75772;SDS011;64381;0.000;0.000;2023-03-01T05:58:16;8.27;;;4.67;;
75772;SDS011;64381;0.000;0.000;2023-03-01T06:00:44;8.07;;;4.50;;
75772;SDS011;64381;0.000;0.000;2023-03-01T06:03:11;8.35;;;4.53;;
75772;SDS011;64381;0.000;0.000;2023-03-01T06:05:38;8.45;;;5.05;;
75772;SDS011;64381;0.000;0.000;2023-03-01T06:08:04;7.47;;;4.65;;
75772;SDS011;64381;0.000;0.000;2023-03-01T06:10:30;7.07;;;4.47;;
75772;SDS011;64381;0.000;0.000;2023-03-01T06:12:55;8.17;;;4.67;;
75772;SDS011;64381;0.000;0.000;2023-03-01T06:15:20;8.07;;;5.03;;
75772;SDS011;64381;0.000;0.000;2023-03-01T06:17:46;7.80;;;4.60;;
75772;SDS011;64381;0.000;0.000;2023-03-01T06:20:16;7.87;;;4.77;;
75772;SDS011;64381;0.000;0.000;2023-03-01T06:22:43;7.95;;;4.57;;
75772;SDS011;64381;0.000;0.000;2023-03-01T06:25:09;7.05;;;4.72;;
75772;SDS011;64381;0.000;0.000;2023-03-01T06:27:36;8.18;;;4.90;;
75772;SDS011;64381;0.000;0.000;2023-03-01T06:30:01;8.53;;;4.93;;
75772;SDS011;64381;0.000;0.000;2023-03-01T06:32:27;7.57;;;4.80;;
75772;SDS011;64381;0.000;0.000;2023-03-01T06:34:52;7.47;;;4.40;;
75772;SDS011;64381;0.000;0.000;2023-03-01T06:37:17;8.50;;;4.37;;
75772;SDS011;64381;0.000;0.000;2023-03-01T06:39:43;9.30;;;4.50;;
75772;SDS011;64381;0.000;0.000;2023-03-01T06:42:08;7.03;;;4.30;;
75772;SDS011;64381;0.000;0.000;2023-03-01T06:44:34;7.22;;;4.40;;
75772;SDS011;64381;0.000;0.000;2023-03-01T06:46:59;7.20;;;4.57;;
75772;SDS011;64381;0.000;0.000;2023-03-01T06:49:24;7.50;;;4.57;;
75772;SDS011;64381;0.000;0.000;2023-03-01T06:51:49;7.43;;;4.27;;
75772;SDS011;64381;0.000;0.000;2023-03-01T06:54:15;7.67;;;4.27;;
75772;SDS011;64381;0.000;0.000;2023-03-01T06:56:40;7.33;;;4.37;;
75772;SDS011;64381;0.000;0.000;2023-03-01T06:59:05;6.90;;;4.50;;
75772;SDS011;64381;0.000;0.000;2023-03-01T07:01:30;7.63;;;4.63;;
75772;SDS011;64381;0.000;0.000;2023-03-01T07:03:56;8.40;;;4.50;;
75772;SDS011;64381;0.000;0.000;2023-03-01T07:06:21;7.50;;;4.60;;
75772;SDS011;64381;0.000;0.000;2023-03-01T07:08:47;7.33;;;4.57;;
75772;SDS011;64381;0.000;0.000;2023-03-01T07:11:12;7.30;;;4.33;;
75772;SDS011;64381;0.000;0.000;2023-03-01T07:13:38;8.45;;;4.50;;
75772;SDS011;64381;0.000;0.000;2023-03-01T07:16:03;7.43;;;4.27;;
75772;SDS011;64381;0.000;0.000;2023-03-01T07:18:29;7.30;;;4.37;;
75772;SDS011;64381;0.000;0.000;2023-03-01T07:20:54;8.00;;;4.80;;
75772;SDS011;64381;0.000;0.000;2023-03-01T07:23:19;7.33;;;4.40;;
75772;SDS011;64381;0.000;0.000;2023-03-01T07:25:50;7.73;;;4.20;;
75772;SDS011;64381;0.000;0.000;2023-03-01T07:28:17;8.25;;;4.60;;
75772;SDS011;64381;0.000;0.000;2023-03-01T07:30:42;6.63;;;4.30;;
75772;SDS011;64381;0.000;0.000;2023-03-01T07:33:07;8.00;;;4.40;;
75772;SDS011;64381;0.000;0.000;2023-03-01T07:35:32;6.60;;;4.00;;
75772;SDS011;64381;0.000;0.000;2023-03-01T07:37:57;6.93;;;4.30;;
75772;SDS011;64381;0.000;0.000;2023-03-01T07:40:23;8.07;;;4.40;;
75772;SDS011;64381;0.000;0.000;2023-03-01T07:42:48;8.07;;;4.77;;
75772;SDS011;64381;0.000;0.000;2023-03-01T07:45:13;8.10;;;4.80;;
75772;SDS011;64381;0.000;0.000;2023-03-01T07:47:38;8.07;;;4.90;;
75772;SDS011;64381;0.000;0.000;2023-03-01T07:50:04;7.97;;;4.80;;
75772;SDS011;64381;0.000;0.000;2023-03-01T07:52:29;8.05;;;5.00;;
75772;SDS011;64381;0.000;0.000;2023-03-01T07:54:55;7.85;;;4.72;;
75772;SDS011;64381;0.000;0.000;2023-03-01T07:57:20;9.50;;;5.70;;
75772;SDS011;64381;0.000;0.000;2023-03-01T07:59:45;8.30;;;5.07;;
75772;SDS011;64381;0.000;0.000;2023-03-01T08:02:10;8.87;;;5.00;;
75772;SDS011;64381;0.000;0.000;2023-03-01T08:04:35;7.33;;;4.70;;
75772;SDS011;64381;0.000;0.000;2023-03-01T08:07:01;8.03;;;4.90;;
75772;SDS011;64381;0.000;0.000;2023-03-01T08:09:29;7.88;;;4.88;;
75772;SDS011;64381;0.000;0.000;2023-03-01T08:14:28;8.77;;;5.40;;
75772;SDS011;64381;0.000;0.000;2023-03-01T08:16:54;8.27;;;5.00;;
75772;SDS011;64381;0.000;0.000;2023-03-01T08:19:19;7.57;;;4.77;;
75772;SDS011;64381;0.000;0.000;2023-03-01T08:21:44;7.57;;;5.05;;
75772;SDS011;64381;0.000;0.000;2023-03-01T08:24:09;9.00;;;4.93;;
75772;SDS011;64381;0.000;0.000;2023-03-01T08:26:35;8.07;;;5.23;;
75772;SDS011;64381;0.000;0.000;2023-03-01T08:29:00;8.13;;;4.80;;
75772;SDS011;64381;0.000;0.000;2023-03-01T08:31:27;9.70;;;5.30;;
75772;SDS011;64381;0.000;0.000;2023-03-01T08:34:00;8.27;;;4.88;;
75772;SDS011;64381;0.000;0.000;2023-03-01T08:36:27;8.18;;;4.72;;
75772;SDS011;64381;0.000;0.000;2023-03-01T08:38:54;7.53;;;4.85;;
75772;SDS011;64381;0.000;0.000;2023-03-01T08:41:19;8.50;;;5.27;;
75772;SDS011;64381;0.000;0.000;2023-03-01T08:43:45;8.00;;;4.77;;
75772;SDS011;64381;0.000;0.000;2023-03-01T08:46:10;8.13;;;5.17;;
75772;SDS011;64381;0.000;0.000;2023-03-01T08:48:36;8.80;;;5.35;;
75772;SDS011;64381;0.000;0.000;2023-03-01T08:51:08;7.57;;;4.80;;
75772;SDS011;64381;0.000;0.000;2023-03-01T08:53:39;8.50;;;5.25;;
75772;SDS011;64381;0.000;0.000;2023-03-01T08:56:04;8.50;;;4.70;;
75772;SDS011;64381;0.000;0.000;2023-03-01T08:58:30;7.87;;;4.90;;
75772;SDS011;64381;0.000;0.000;2023-03-01T09:00:56;8.10;;;4.97;;
75772;SDS011;64381;0.000;0.000;2023-03-01T09:03:21;8.77;;;5.17;;
75772;SDS011;64381;0.000;0.000;2023-03-01T09:05:47;8.48;;;4.90;;
75772;SDS011;64381;0.000;0.000;2023-03-01T09:08:12;8.07;;;4.83;;
75772;SDS011;64381;0.000;0.000;2023-03-01T09:10:38;8.03;;;4.73;;
75772;SDS011;64381;0.000;0.000;2023-03-01T09:13:03;8.33;;;5.20;;
75772;SDS011;64381;0.000;0.000;2023-03-01T09:15:28;8.90;;;5.47;;
75772;SDS011;64381;0.000;0.000;2023-03-01T09:17:53;8.47;;;5.00;;
75772;SDS011;64381;0.000;0.000;2023-03-01T09:20:19;7.87;;;5.07;;
75772;SDS011;64381;0.000;0.000;2023-03-01T09:22:44;8.17;;;5.00;;
75772;SDS011;64381;0.000;0.000;2023-03-01T09:25:09;7.83;;;4.87;;
75772;SDS011;64381;0.000;0.000;2023-03-01T09:27:34;7.70;;;4.77;;
75772;SDS011;64381;0.000;0.000;2023-03-01T09:30:00;8.73;;;5.17;;
75772;SDS011;64381;0.000;0.000;2023-03-01T09:32:25;8.98;;;4.97;;
75772;SDS011;64381;0.000;0.000;2023-03-01T09:34:50;7.60;;;5.00;;
75772;SDS011;64381;0.000;0.000;2023-03-01T09:37:15;7.93;;;4.90;;
75772;SDS011;64381;0.000;0.000;2023-03-01T09:39:41;7.57;;;4.80;;
75772;SDS011;64381;0.000;0.000;2023-03-01T09:42:06;8.80;;;5.37;;
75772;SDS011;64381;0.000;0.000;2023-03-01T09:47:09;7.97;;;4.87;;
75772;SDS011;64381;0.000;0.000;2023-03-01T09:49:43;8.50;;;5.20;;
75772;SDS011;64381;0.000;0.000;2023-03-01T09:55:05;7.78;;;4.82;;
75772;SDS011;64381;0.000;0.000;2023-03-01T10:00:19;7.53;;;4.60;;
75772;SDS011;64381;0.000;0.000;2023-03-01T10:05:48;7.78;;;4.85;;
75772;SDS011;64381;0.000;0.000;2023-03-01T10:08:30;7.22;;;4.72;;
75772;SDS011;64381;0.000;0.000;2023-03-01T10:10:59;7.68;;;4.90;;
75772;SDS011;64381;0.000;0.000;2023-03-01T10:13:27;7.80;;;4.90;;
75772;SDS011;64381;0.000;0.000;2023-03-01T10:16:21;8.25;;;5.18;;
75772;SDS011;64381;0.000;0.000;2023-03-01T10:18:53;7.68;;;4.85;;
75772;SDS011;64381;0.000;0.000;2023-03-01T10:21:25;7.63;;;5.10;;
75772;SDS011;64381;0.000;0.000;2023-03-01T10:23:52;7.63;;;4.50;;
75772;SDS011;64381;0.000;0.000;2023-03-01T10:26:28;7.65;;;4.82;;
75772;SDS011;64381;0.000;0.000;2023-03-01T10:29:06;8.23;;;5.30;;
75772;SDS011;64381;0.000;0.000;2023-03-01T10:34:13;8.13;;;4.88;;
75772;SDS011;64381;0.000;0.000;2023-03-01T10:36:40;8.43;;;5.37;;
75772;SDS011;64381;0.000;0.000;2023-03-01T10:39:17;8.95;;;5.00;;
75772;SDS011;64381;0.000;0.000;2023-03-01T10:44:44;7.03;;;4.25;;
75772;SDS011;64381;0.000;0.000;2023-03-01T10:47:21;7.93;;;4.70;;
75772;SDS011;64381;0.000;0.000;2023-03-01T10:50:02;8.13;;;4.80;;
75772;SDS011;64381;0.000;0.000;2023-03-01T10:52:36;6.93;;;4.40;;
75772;SDS011;64381;0.000;0.000;2023-03-01T10:57:43;9.45;;;5.30;;
75772;SDS011;64381;0.000;0.000;2023-03-01T11:02:48;7.63;;;4.75;;
75772;SDS011;64381;0.000;0.000;2023-03-01T11:05:34;6.87;;;4.53;;
75772;SDS011;64381;0.000;0.000;2023-03-01T11:08:00;7.57;;;4.40;;
75772;SDS011;64381;0.000;0.000;2023-03-01T11:10:33;7.32;;;4.50;;
75772;SDS011;64381;0.000;0.000;2023-03-01T11:13:19;7.82;;;4.70;;
75772;SDS011;64381;0.000;0.000;2023-03-01T11:16:00;7.50;;;4.35;;
75772;SDS011;64381;0.000;0.000;2023-03-01T11:18:27;8.00;;;4.90;;
75772;SDS011;64381;0.000;0.000;2023-03-01T11:20:55;8.77;;;4.80;;
75772;SDS011;64381;0.000;0.000;2023-03-01T11:23:21;7.25;;;4.40;;
75772;SDS011;64381;0.000;0.000;2023-03-01T11:25:48;8.40;;;4.60;;
75772;SDS011;64381;0.000;0.000;2023-03-01T11:28:29;8.52;;;5.05;;
75772;SDS011;64381;0.000;0.000;2023-03-01T11:31:05;8.80;;;5.27;;
75772;SDS011;64381;0.000;0.000;2023-03-01T11:38:40;9.57;;;5.30;;
75772;SDS011;64381;0.000;0.000;2023-03-01T11:41:23;8.43;;;5.22;;
75772;SDS011;64381;0.000;0.000;2023-03-01T11:43:53;8.63;;;5.37;;
75772;SDS011;64381;0.000;0.000;2023-03-01T12:05:41;10.48;;;5.43;;
75772;SDS011;64381;0.000;0.000;2023-03-01T12:20:04;10.23;;;6.40;;
75772;SDS011;64381;0.000;0.000;2023-03-01T12:22:50;12.35;;;7.20;;
75772;SDS011;64381;0.000;0.000;2023-03-01T12:25:31;11.93;;;6.83;;
75772;SDS011;64381;0.000;0.000;2023-03-01T12:28:18;10.95;;;6.43;;
75772;SDS011;64381;0.000;0.000;2023-03-01T12:36:23;10.05;;;6.32;;
75772;SDS011;64381;0.000;0.000;2023-03-01T12:44:57;12.18;;;7.00;;
75772;SDS011;64381;0.000;0.000;2023-03-01T12:51:02;12.05;;;7.18;;
75772;SDS011;64381;0.000;0.000;2023-03-01T12:53:37;12.40;;;7.20;;
75772;SDS011;64381;0.000;0.000;2023-03-01T12:56:07;17.95;;;8.73;;
75772;SDS011;64381;0.000;0.000;2023-03-01T13:03:53;17.52;;;8.93;;
75772;SDS011;64381;0.000;0.000;2023-03-01T13:09:24;14.75;;;8.15;;
75772;SDS011;64381;0.000;0.000;2023-03-01T13:12:00;13.50;;;8.07;;
75772;SDS011;64381;0.000;0.000;2023-03-01T13:16:51;15.93;;;8.55;;
75772;SDS011;64381;0.000;0.000;2023-03-01T13:19:21;15.35;;;8.50;;
75772;SDS011;64381;0.000;0.000;2023-03-01T13:21:49;17.02;;;8.63;;
75772;SDS011;64381;0.000;0.000;2023-03-01T13:24:29;15.17;;;8.43;;
75772;SDS011;64381;0.000;0.000;2023-03-01T13:35:03;15.10;;;8.48;;
75772;SDS011;64381;0.000;0.000;2023-03-01T13:41:08;14.60;;;7.90;;
75772;SDS011;64381;0.000;0.000;2023-03-01T13:43:40;13.80;;;7.90;;
75772;SDS011;64381;0.000;0.000;2023-03-01T13:46:08;14.25;;;8.00;;
75772;SDS011;64381;0.000;0.000;2023-03-01T13:48:36;13.77;;;8.07;;
75772;SDS011;64381;0.000;0.000;2023-03-01T13:51:04;14.43;;;7.70;;
75772;SDS011;64381;0.000;0.000;2023-03-01T13:53:36;14.27;;;7.47;;
75772;SDS011;64381;0.000;0.000;2023-03-01T13:56:19;17.33;;;8.27;;
75772;SDS011;64381;0.000;0.000;2023-03-01T14:01:21;12.98;;;7.07;;
75772;SDS011;64381;0.000;0.000;2023-03-01T14:03:57;14.43;;;7.35;;
75772;SDS011;64381;0.000;0.000;2023-03-01T14:06:27;14.37;;;7.30;;
75772;SDS011;64381;0.000;0.000;2023-03-01T14:09:02;18.95;;;8.10;;
75772;SDS011;64381;0.000;0.000;2023-03-01T14:15:02;11.98;;;7.20;;
75772;SDS011;64381;0.000;0.000;2023-03-01T14:20:12;16.10;;;8.03;;
75772;SDS011;64381;0.000;0.000;2023-03-01T14:22:40;15.75;;;8.05;;
75772;SDS011;64381;0.000;0.000;2023-03-01T14:25:21;14.40;;;7.80;;
75772;SDS011;64381;0.000;0.000;2023-03-01T14:28:02;12.15;;;7.57;;
75772;SDS011;64381;0.000;0.000;2023-03-01T14:30:50;12.10;;;7.22;;
75772;SDS011;64381;0.000;0.000;2023-03-01T14:33:33;13.10;;;7.37;;
75772;SDS011;64381;0.000;0.000;2023-03-01T14:36:01;12.73;;;7.30;;
75772;SDS011;64381;0.000;0.000;2023-03-01T14:38:36;14.60;;;7.55;;
75772;SDS011;64381;0.000;0.000;2023-03-01T14:43:31;13.27;;;7.80;;
75772;SDS011;64381;0.000;0.000;2023-03-01T14:45:56;12.83;;;7.30;;
75772;SDS011;64381;0.000;0.000;2023-03-01T14:48:22;13.57;;;7.60;;
75772;SDS011;64381;0.000;0.000;2023-03-01T14:50:48;13.63;;;7.13;;
75772;SDS011;64381;0.000;0.000;2023-03-01T14:53:16;11.90;;;7.63;;
75772;SDS011;64381;0.000;0.000;2023-03-01T14:55:48;12.82;;;7.20;;
75772;SDS011;64381;0.000;0.000;2023-03-01T14:58:19;13.27;;;7.60;;
75772;SDS011;64381;0.000;0.000;2023-03-01T15:00:54;12.63;;;7.40;;
75772;SDS011;64381;0.000;0.000;2023-03-01T15:05:55;11.95;;;7.10;;
75772;SDS011;64381;0.000;0.000;2023-03-01T15:08:22;11.90;;;7.23;;
75772;SDS011;64381;0.000;0.000;2023-03-01T15:11:03;11.70;;;7.13;;
75772;SDS011;64381;0.000;0.000;2023-03-01T15:13:38;11.95;;;7.00;;
75772;SDS011;64381;0.000;0.000;2023-03-01T15:18:34;12.75;;;6.90;;
75772;SDS011;64381;0.000;0.000;2023-03-01T15:21:15;13.23;;;7.30;;
75772;SDS011;64381;0.000;0.000;2023-03-01T15:23:47;14.63;;;7.67;;
75772;SDS011;64381;0.000;0.000;2023-03-01T15:26:50;12.02;;;6.68;;
75772;SDS011;64381;0.000;0.000;2023-03-01T15:29:11;11.82;;;6.95;;
75772;SDS011;64381;0.000;0.000;2023-03-01T15:31:41;13.88;;;7.43;;
75772;SDS011;64381;0.000;0.000;2023-03-01T15:34:49;12.60;;;7.07;;
75772;SDS011;64381;0.000;0.000;2023-03-01T15:37:00;12.38;;;7.45;;
75772;SDS011;64381;0.000;0.000;2023-03-01T15:39:30;12.23;;;7.15;;
75772;SDS011;64381;0.000;0.000;2023-03-01T15:41:57;10.95;;;6.68;;
75772;SDS011;64381;0.000;0.000;2023-03-01T15:44:29;11.30;;;6.97;;
75772;SDS011;64381;0.000;0.000;2023-03-01T15:46:56;12.15;;;7.00;;
75772;SDS011;64381;0.000;0.000;2023-03-01T15:49:35;11.45;;;6.85;;
75772;SDS011;64381;0.000;0.000;2023-03-01T15:52:04;11.67;;;6.83;;
75772;SDS011;64381;0.000;0.000;2023-03-01T15:54:34;13.23;;;6.97;;
75772;SDS011;64381;0.000;0.000;2023-03-01T15:57:00;11.60;;;6.67;;
75772;SDS011;64381;0.000;0.000;2023-03-01T15:59:25;11.03;;;6.27;;
75772;SDS011;64381;0.000;0.000;2023-03-01T16:01:50;12.35;;;7.20;;
75772;SDS011;64381;0.000;0.000;2023-03-01T16:04:17;11.03;;;6.80;;
75772;SDS011;64381;0.000;0.000;2023-03-01T16:06:43;12.48;;;6.97;;
75772;SDS011;64381;0.000;0.000;2023-03-01T16:09:08;14.17;;;7.73;;
75772;SDS011;64381;0.000;0.000;2023-03-01T16:11:35;14.23;;;7.67;;
75772;SDS011;64381;0.000;0.000;2023-03-01T16:14:00;13.57;;;7.60;;
75772;SDS011;64381;0.000;0.000;2023-03-01T16:16:25;14.53;;;8.27;;
75772;SDS011;64381;0.000;0.000;2023-03-01T16:18:50;15.13;;;7.60;;
75772;SDS011;64381;0.000;0.000;2023-03-01T16:21:18;14.27;;;7.87;;
75772;SDS011;64381;0.000;0.000;2023-03-01T16:23:45;13.50;;;7.63;;
75772;SDS011;64381;0.000;0.000;2023-03-01T16:26:11;13.47;;;7.53;;
75772;SDS011;64381;0.000;0.000;2023-03-01T16:28:36;12.03;;;7.30;;
75772;SDS011;64381;0.000;0.000;2023-03-01T16:31:01;13.00;;;7.80;;
75772;SDS011;64381;0.000;0.000;2023-03-01T16:33:27;13.17;;;7.37;;
75772;SDS011;64381;0.000;0.000;2023-03-01T16:35:52;13.23;;;7.23;;
75772;SDS011;64381;0.000;0.000;2023-03-01T16:38:17;13.17;;;7.63;;
75772;SDS011;64381;0.000;0.000;2023-03-01T16:40:46;12.57;;;7.43;;
75772;SDS011;64381;0.000;0.000;2023-03-01T16:43:13;12.70;;;7.72;;
75772;SDS011;64381;0.000;0.000;2023-03-01T16:45:38;12.50;;;7.60;;
75772;SDS011;64381;0.000;0.000;2023-03-01T16:48:03;14.13;;;7.40;;
75772;SDS011;64381;0.000;0.000;2023-03-01T16:50:29;12.47;;;7.20;;
75772;SDS011;64381;0.000;0.000;2023-03-01T16:52:54;12.53;;;7.67;;
75772;SDS011;64381;0.000;0.000;2023-03-01T16:55:19;13.50;;;7.10;;
75772;SDS011;64381;0.000;0.000;2023-03-01T16:57:45;11.93;;;7.30;;
75772;SDS011;64381;0.000;0.000;2023-03-01T17:00:10;14.50;;;8.10;;
75772;SDS011;64381;0.000;0.000;2023-03-01T17:02:37;12.88;;;7.07;;
75772;SDS011;64381;0.000;0.000;2023-03-01T17:05:02;10.60;;;7.23;;
75772;SDS011;64381;0.000;0.000;2023-03-01T17:07:29;13.25;;;7.43;;